Time;durP1;ratioP1;P1;durP2;ratioP2;P2;SDS_P1;SDS_P2;PMS_P1;PMS_P2;Temp;Humidity;BMP_temperature;BMP_pressure;BME280_temperature;BME280_humidity;BME280_pressure;Samples;Min_cycle;Max_cycle;Signal;HPM_P1;HPM_P2
2024/02/10 00:00:27;;;;;;;2.28;0.40;;;;;;;;;;2059140;28;20018;-51
2024/02/10 00:01:34;;;;;;;3.25;0.68;;;;;;;;;;2058011;28;20110;-50
2024/02/10 00:02:36;;;;;;;2.88;0.47;;;;;;;;;;2053259;28;20099;-51
2024/02/10 00:03:37;;;;;;;7.18;0.90;;;;;;;;;;2056484;28;20330;-53
2024/02/10 00:04:39;;;;;;;4.13;0.70;;;;;;;;;;2057462;28;20030;-52
2024/02/10 00:05:45;;;;;;;1.85;0.60;;;;;;;;;;2048990;28;20035;-51
2024/02/10 00:06:46;;;;;;;3.25;0.50;;;;;;;;;;2056467;28;20090;-51
2024/02/10 00:07:56;;;;;;;1.88;0.35;;;;;;;;;;2049099;29;20374;-51
2024/02/10 00:08:59;;;;;;;1.92;0.40;;;;;;;;;;2049556;29;20107;-52
2024/02/10 00:10:01;;;;;;;1.90;0.50;;;;;;;;;;2049946;29;20114;-51
2024/02/10 00:11:02;;;;;;;2.80;0.43;;;;;;;;;;2054674;28;20034;-50
2024/02/10 00:12:03;;;;;;;3.55;0.55;;;;;;;;;;2057961;28;20046;-52
2024/02/10 00:13:06;;;;;;;3.45;0.63;;;;;;;;;;2057868;28;20113;-50
2024/02/10 00:14:11;;;;;;;2.83;0.43;;;;;;;;;;2057958;28;20033;-50
2024/02/10 00:15:13;;;;;;;3.65;0.65;;;;;;;;;;2057935;28;20128;-51
2024/02/10 00:16:15;;;;;;;2.47;0.68;;;;;;;;;;2058133;28;20046;-50
2024/02/10 00:17:17;;;;;;;2.10;0.45;;;;;;;;;;2057978;28;20578;-50
2024/02/10 00:18:19;;;;;;;1.70;0.50;;;;;;;;;;2057789;28;20038;-50
2024/02/10 00:19:21;;;;;;;2.55;0.73;;;;;;;;;;2057957;28;20441;-50
2024/02/10 00:20:25;;;;;;;3.40;0.50;;;;;;;;;;2057891;28;20081;-50
2024/02/10 00:21:29;;;;;;;3.00;0.43;;;;;;;;;;2057280;28;20023;-52
2024/02/10 00:22:31;;;;;;;1.63;0.38;;;;;;;;;;2049935;28;20219;-52
2024/02/10 00:23:32;;;;;;;4.80;0.57;;;;;;;;;;2056887;28;20031;-50
2024/02/10 00:24:34;;;;;;;4.13;0.75;;;;;;;;;;2063432;28;20030;-53
2024/02/10 00:25:36;;;;;;;1.98;0.40;;;;;;;;;;2051296;28;20026;-50
2024/02/10 00:26:37;;;;;;;2.97;0.50;;;;;;;;;;2057352;28;20386;-52
2024/02/10 00:27:39;;;;;;;3.55;0.90;;;;;;;;;;2057279;28;20027;-53
2024/02/10 00:28:41;;;;;;;2.83;0.65;;;;;;;;;;2058015;28;20138;-51
2024/02/10 00:29:43;;;;;;;3.38;0.65;;;;;;;;;;2057645;28;20019;-51
2024/02/10 00:30:44;;;;;;;3.33;0.52;;;;;;;;;;2057699;28;20074;-51
2024/02/10 00:31:46;;;;;;;2.00;0.50;;;;;;;;;;2056991;28;20034;-50
2024/02/10 00:32:51;;;;;;;2.75;0.40;;;;;;;;;;2057304;28;20031;-51
2024/02/10 00:33:52;;;;;;;3.28;0.55;;;;;;;;;;2057877;28;20014;-51
2024/02/10 00:34:53;;;;;;;3.35;0.70;;;;;;;;;;2065568;28;20105;-53
2024/02/10 00:35:54;;;;;;;2.97;0.60;;;;;;;;;;2065066;28;20599;-57
2024/02/10 00:36:56;;;;;;;2.75;0.40;;;;;;;;;;2059055;28;20034;-51
2024/02/10 00:37:57;;;;;;;1.88;0.52;;;;;;;;;;2057996;28;20022;-56
2024/02/10 00:38:59;;;;;;;3.28;0.50;;;;;;;;;;2058101;28;20525;-57
2024/02/10 00:40:02;;;;;;;5.00;0.60;;;;;;;;;;2057302;28;20474;-56
2024/02/10 00:41:06;;;;;;;4.30;0.70;;;;;;;;;;2057526;28;20027;-54
2024/02/10 00:42:07;;;;;;;2.80;0.65;;;;;;;;;;2057744;28;20029;-55
2024/02/10 00:43:12;;;;;;;4.35;1.00;;;;;;;;;;2055344;28;20042;-56
2024/02/10 00:44:13;;;;;;;4.05;1.00;;;;;;;;;;2051104;28;20038;-54
2024/02/10 00:45:15;;;;;;;3.30;0.40;;;;;;;;;;2057858;28;20035;-55
2024/02/10 00:46:16;;;;;;;3.78;0.60;;;;;;;;;;2058131;28;20156;-56
2024/02/10 00:47:18;;;;;;;2.20;0.80;;;;;;;;;;2057984;28;20022;-55
2024/02/10 00:48:19;;;;;;;1.27;0.40;;;;;;;;;;2057756;28;20109;-57
2024/02/10 00:49:24;;;;;;;2.58;0.50;;;;;;;;;;2057670;28;20029;-55
2024/02/10 00:50:25;;;;;;;2.47;0.35;;;;;;;;;;2057084;28;20038;-56
2024/02/10 00:51:28;;;;;;;1.60;0.40;;;;;;;;;;2056925;28;20410;-54
2024/02/10 00:52:29;;;;;;;1.55;0.13;;;;;;;;;;2057987;28;20023;-55
2024/02/10 00:53:31;;;;;;;1.23;0.47;;;;;;;;;;2057833;28;20407;-55
2024/02/10 00:54:32;;;;;;;1.55;0.40;;;;;;;;;;2057567;28;20117;-55
2024/02/10 00:55:34;;;;;;;2.65;0.30;;;;;;;;;;2058173;28;20007;-54
2024/02/10 00:56:36;;;;;;;2.72;0.40;;;;;;;;;;2065563;28;20037;-53
2024/02/10 00:57:37;;;;;;;3.22;0.63;;;;;;;;;;2060831;28;20578;-49
2024/02/10 00:58:44;;;;;;;2.90;0.65;;;;;;;;;;2057586;28;20026;-55
2024/02/10 00:59:46;;;;;;;2.45;0.60;;;;;;;;;;2057539;28;20014;-54
2024/02/10 01:00:47;;;;;;;3.00;0.30;;;;;;;;;;2057578;28;20026;-48
2024/02/10 01:01:52;;;;;;;2.33;0.50;;;;;;;;;;2057503;28;20073;-53
2024/02/10 01:02:54;;;;;;;2.58;0.45;;;;;;;;;;2055399;28;20030;-56
2024/02/10 01:03:55;;;;;;;4.28;0.47;;;;;;;;;;2054977;28;20463;-55
2024/02/10 01:04:57;;;;;;;2.90;0.75;;;;;;;;;;2061714;28;20088;-54
2024/02/10 01:05:58;;;;;;;1.80;0.63;;;;;;;;;;2060821;28;20033;-51
2024/02/10 01:07:01;;;;;;;2.63;0.40;;;;;;;;;;2056305;28;20023;-54
2024/02/10 01:08:02;;;;;;;1.33;0.30;;;;;;;;;;2057289;28;20033;-53
2024/02/10 01:09:04;;;;;;;2.30;0.50;;;;;;;;;;2056650;28;20049;-54
2024/02/10 01:10:07;;;;;;;3.05;0.45;;;;;;;;;;2057305;28;20026;-54
2024/02/10 01:11:11;;;;;;;1.63;0.40;;;;;;;;;;2057618;28;20034;-48
2024/02/10 01:12:13;;;;;;;4.18;0.52;;;;;;;;;;2057857;28;20019;-57
2024/02/10 01:13:14;;;;;;;3.13;0.60;;;;;;;;;;2056986;28;20521;-54
2024/02/10 01:14:15;;;;;;;1.52;0.55;;;;;;;;;;2057737;28;20031;-56
2024/02/10 01:15:17;;;;;;;2.78;0.40;;;;;;;;;;2057084;28;20418;-54
2024/02/10 01:16:18;;;;;;;2.03;0.57;;;;;;;;;;2056982;28;20037;-56
2024/02/10 01:17:20;;;;;;;1.63;0.38;;;;;;;;;;2057341;28;20053;-55
2024/02/10 01:18:21;;;;;;;3.00;0.47;;;;;;;;;;2057012;28;20095;-55
2024/02/10 01:19:25;;;;;;;2.03;0.38;;;;;;;;;;2057508;28;20038;-55
2024/02/10 01:20:27;;;;;;;2.15;0.38;;;;;;;;;;2057983;28;20029;-54
2024/02/10 01:21:28;;;;;;;5.03;0.55;;;;;;;;;;2057835;28;20018;-56
2024/02/10 01:22:29;;;;;;;2.47;0.50;;;;;;;;;;2057280;28;20383;-51
2024/02/10 01:23:33;;;;;;;1.00;0.32;;;;;;;;;;2049769;28;20031;-54
2024/02/10 01:24:35;;;;;;;3.58;0.73;;;;;;;;;;2049582;28;20023;-56
2024/02/10 01:25:37;;;;;;;1.08;0.20;;;;;;;;;;2048961;29;20039;-54
2024/02/10 01:26:40;;;;;;;3.50;0.75;;;;;;;;;;2048908;29;20159;-55
2024/02/10 01:27:44;;;;;;;1.40;0.40;;;;;;;;;;2064581;28;20023;-57
2024/02/10 01:28:45;;;;;;;2.70;0.60;;;;;;;;;;2059806;28;20019;-57
2024/02/10 01:29:47;;;;;;;0.80;0.28;;;;;;;;;;2056926;28;20089;-57
2024/02/10 01:30:51;;;;;;;4.53;0.50;;;;;;;;;;2056941;28;20478;-58
2024/02/10 01:31:52;;;;;;;3.53;0.68;;;;;;;;;;2057378;28;20422;-55
2024/02/10 01:32:57;;;;;;;2.67;0.40;;;;;;;;;;2057286;28;20126;-56
2024/02/10 01:33:59;;;;;;;1.25;0.55;;;;;;;;;;2057309;28;20104;-58
2024/02/10 01:35:03;;;;;;;5.03;0.50;;;;;;;;;;2057205;28;20391;-48
2024/02/10 01:36:04;;;;;;;3.15;0.40;;;;;;;;;;2057262;28;20358;-58
2024/02/10 01:37:07;;;;;;;2.33;0.25;;;;;;;;;;2058721;28;20057;-56
2024/02/10 01:38:09;;;;;;;2.15;0.50;;;;;;;;;;2065219;28;20061;-57
2024/02/10 01:39:10;;;;;;;3.15;0.43;;;;;;;;;;2064570;28;20034;-52
2024/02/10 01:40:12;;;;;;;1.38;0.20;;;;;;;;;;2064727;28;20029;-57
2024/02/10 01:41:14;;;;;;;1.85;0.38;;;;;;;;;;2065264;28;20010;-57
2024/02/10 01:42:22;;;;;;;2.10;0.30;;;;;;;;;;2064495;28;20022;-58
2024/02/10 01:43:23;;;;;;;2.17;0.28;;;;;;;;;;2056503;28;20080;-57
2024/02/10 01:44:25;;;;;;;0.63;0.17;;;;;;;;;;2057388;28;20359;-58
2024/02/10 01:45:26;;;;;;;1.23;0.30;;;;;;;;;;2063265;28;20516;-59
2024/02/10 01:46:28;;;;;;;2.55;0.55;;;;;;;;;;2062276;28;20125;-59
2024/02/10 01:47:29;;;;;;;2.40;0.65;;;;;;;;;;2057116;28;20081;-56
2024/02/10 01:48:31;;;;;;;3.10;0.40;;;;;;;;;;2057256;28;20057;-53
2024/02/10 01:49:32;;;;;;;3.35;0.45;;;;;;;;;;2056369;28;20095;-55
2024/02/10 01:50:33;;;;;;;1.30;0.30;;;;;;;;;;2056521;28;20073;-57
2024/02/10 01:51:34;;;;;;;0.95;0.32;;;;;;;;;;2057197;28;20547;-57
2024/02/10 01:52:36;;;;;;;2.97;0.43;;;;;;;;;;2057065;28;20022;-56
2024/02/10 01:53:41;;;;;;;1.85;0.40;;;;;;;;;;2057042;28;20063;-57
2024/02/10 01:54:47;;;;;;;3.38;0.40;;;;;;;;;;2056460;28;20517;-58
2024/02/10 01:55:48;;;;;;;0.95;0.30;;;;;;;;;;2056502;28;20045;-56
2024/02/10 01:56:53;;;;;;;0.35;0.20;;;;;;;;;;2056820;28;20517;-56
2024/02/10 01:57:58;;;;;;;0.85;0.20;;;;;;;;;;2057209;28;20482;-57
2024/02/10 01:59:00;;;;;;;0.77;0.22;;;;;;;;;;2057194;28;20027;-58
2024/02/10 02:00:05;;;;;;;1.63;0.45;;;;;;;;;;2057037;28;20033;-50
2024/02/10 02:01:06;;;;;;;1.63;0.13;;;;;;;;;;2057259;28;20430;-59
2024/02/10 02:02:14;;;;;;;0.75;0.10;;;;;;;;;;2060777;28;20026;-60
2024/02/10 02:03:16;;;;;;;0.95;0.30;;;;;;;;;;2061238;28;20520;-56
2024/02/10 02:04:19;;;;;;;0.30;0.10;;;;;;;;;;2065469;28;20096;-57
2024/02/10 02:05:21;;;;;;;1.50;0.25;;;;;;;;;;2065453;28;20026;-56
2024/02/10 02:06:22;;;;;;;1.65;0.28;;;;;;;;;;2064493;28;20041;-52
2024/02/10 02:07:23;;;;;;;0.80;0.13;;;;;;;;;;2064290;28;20035;-55
2024/02/10 02:08:25;;;;;;;1.02;0.10;;;;;;;;;;2064823;28;20030;-55
2024/02/10 02:09:26;;;;;;;1.00;0.30;;;;;;;;;;2064929;28;20481;-55
2024/02/10 02:10:27;;;;;;;0.40;0.13;;;;;;;;;;2064706;28;20098;-57
2024/02/10 02:11:28;;;;;;;0.90;0.20;;;;;;;;;;2064743;28;20010;-58
2024/02/10 02:12:31;;;;;;;1.30;0.10;;;;;;;;;;2064860;28;20397;-61
2024/02/10 02:13:32;;;;;;;0.70;0.10;;;;;;;;;;2059532;28;20023;-61
2024/02/10 02:14:36;;;;;;;0.88;0.20;;;;;;;;;;2057036;28;20023;-55
2024/02/10 02:15:37;;;;;;;2.10;0.30;;;;;;;;;;2056815;28;20019;-57
2024/02/10 02:16:39;;;;;;;0.52;0.10;;;;;;;;;;2056901;28;20493;-55
2024/02/10 02:17:42;;;;;;;1.27;0.15;;;;;;;;;;2056236;28;20022;-59
2024/02/10 02:18:43;;;;;;;0.40;0.20;;;;;;;;;;2056104;28;20042;-57
2024/02/10 02:19:45;;;;;;;0.52;0.10;;;;;;;;;;2056802;28;20018;-58
2024/02/10 02:20:49;;;;;;;0.85;0.10;;;;;;;;;;2056818;28;20038;-54
2024/02/10 02:21:50;;;;;;;0.50;0.20;;;;;;;;;;2056700;28;20391;-54
2024/02/10 02:22:52;;;;;;;1.67;0.17;;;;;;;;;;2056481;28;20450;-53
2024/02/10 02:23:53;;;;;;;1.25;0.20;;;;;;;;;;2056868;28;20030;-55
2024/02/10 02:24:54;;;;;;;0.93;0.13;;;;;;;;;;2056345;28;20026;-55
2024/02/10 02:25:55;;;;;;;0.32;0.10;;;;;;;;;;2056242;28;20141;-56
2024/02/10 02:26:57;;;;;;;0.30;0.10;;;;;;;;;;2056053;28;20107;-56
2024/02/10 02:27:58;;;;;;;0.70;0.30;;;;;;;;;;2056664;28;20038;-58
2024/02/10 02:28:59;;;;;;;1.20;0.25;;;;;;;;;;2056707;28;20834;-56
2024/02/10 02:30:01;;;;;;;0.70;0.20;;;;;;;;;;2056866;28;20035;-57
2024/02/10 02:31:03;;;;;;;0.20;0.10;;;;;;;;;;2056767;28;20046;-58
2024/02/10 02:32:05;;;;;;;0.60;0.20;;;;;;;;;;2056660;28;20041;-57
2024/02/10 02:33:07;;;;;;;0.20;0.00;;;;;;;;;;2058165;28;20019;-57
2024/02/10 02:34:08;;;;;;;0.68;0.40;;;;;;;;;;2056839;28;20128;-56
2024/02/10 02:35:10;;;;;;;0.47;0.20;;;;;;;;;;2057194;28;20035;-57
2024/02/10 02:36:11;;;;;;;0.60;0.20;;;;;;;;;;2056942;28;20081;-54
2024/02/10 02:37:13;;;;;;;0.30;0.10;;;;;;;;;;2056793;28;20502;-55
2024/02/10 02:38:16;;;;;;;0.68;0.10;;;;;;;;;;2064187;28;20022;-53
2024/02/10 02:39:22;;;;;;;0.30;0.10;;;;;;;;;;2063298;28;20026;-56
2024/02/10 02:40:25;;;;;;;0.70;0.20;;;;;;;;;;2056727;28;20102;-60
2024/02/10 02:41:27;;;;;;;0.20;0.00;;;;;;;;;;2056197;28;20047;-52
2024/02/10 02:42:29;;;;;;;2.17;0.10;;;;;;;;;;2056768;28;20023;-52
2024/02/10 02:43:35;;;;;;;0.85;0.10;;;;;;;;;;2056675;28;20037;-50
2024/02/10 02:44:36;;;;;;;0.30;0.10;;;;;;;;;;2056512;28;20026;-50
2024/02/10 02:45:37;;;;;;;0.70;0.13;;;;;;;;;;2056055;28;20537;-51
2024/02/10 02:46:38;;;;;;;0.45;0.10;;;;;;;;;;2055930;28;20023;-52
2024/02/10 02:47:40;;;;;;;0.38;0.13;;;;;;;;;;2055901;28;20054;-51
2024/02/10 02:48:42;;;;;;;0.88;0.20;;;;;;;;;;2055855;28;20081;-49
2024/02/10 02:49:43;;;;;;;0.17;0.08;;;;;;;;;;2056625;28;20428;-52
2024/02/10 02:50:46;;;;;;;0.98;0.20;;;;;;;;;;2056635;28;20007;-51
2024/02/10 02:51:48;;;;;;;0.68;0.10;;;;;;;;;;2056333;28;20545;-51
2024/02/10 02:52:49;;;;;;;0.80;0.10;;;;;;;;;;2055604;28;20490;-57
2024/02/10 02:53:51;;;;;;;0.47;0.13;;;;;;;;;;2056691;28;20019;-57
2024/02/10 02:54:53;;;;;;;0.10;0.10;;;;;;;;;;2056041;28;20031;-56
2024/02/10 02:55:55;;;;;;;1.63;0.10;;;;;;;;;;2057334;28;20476;-56
2024/02/10 02:57:00;;;;;;;0.50;0.10;;;;;;;;;;2064864;28;20037;-55
2024/02/10 02:58:03;;;;;;;0.55;0.10;;;;;;;;;;2064144;28;20022;-57
2024/02/10 02:59:05;;;;;;;1.23;0.10;;;;;;;;;;2055957;28;20102;-56
2024/02/10 03:00:06;;;;;;;1.08;0.10;;;;;;;;;;2061106;28;20560;-53
2024/02/10 03:01:08;;;;;;;0.25;0.10;;;;;;;;;;2065544;28;20018;-56
2024/02/10 03:02:09;;;;;;;1.10;0.10;;;;;;;;;;2062542;28;20458;-55
2024/02/10 03:03:10;;;;;;;0.50;0.15;;;;;;;;;;2055929;28;20023;-56
2024/02/10 03:04:15;;;;;;;1.00;0.43;;;;;;;;;;2056920;28;20027;-56
2024/02/10 03:05:17;;;;;;;0.65;0.10;;;;;;;;;;2056690;28;20019;-56
2024/02/10 03:06:24;;;;;;;0.30;0.15;;;;;;;;;;2057642;28;20073;-57
2024/02/10 03:07:30;;;;;;;0.38;0.10;;;;;;;;;;2056669;28;20027;-56
2024/02/10 03:08:31;;;;;;;0.85;0.10;;;;;;;;;;2056344;28;20069;-56
2024/02/10 03:09:32;;;;;;;2.08;0.10;;;;;;;;;;2056701;28;20502;-57
2024/02/10 03:10:34;;;;;;;3.20;0.10;;;;;;;;;;2056709;28;20074;-55
2024/02/10 03:11:36;;;;;;;0.98;0.10;;;;;;;;;;2056632;28;20085;-55
2024/02/10 03:12:37;;;;;;;0.63;0.10;;;;;;;;;;2056387;28;20367;-54
2024/02/10 03:13:38;;;;;;;1.65;0.10;;;;;;;;;;2056666;28;20099;-56
2024/02/10 03:14:40;;;;;;;1.38;0.05;;;;;;;;;;2056604;28;20026;-56
2024/02/10 03:15:42;;;;;;;1.05;0.20;;;;;;;;;;2056842;28;20093;-56
2024/02/10 03:16:45;;;;;;;0.70;0.13;;;;;;;;;;2056474;28;20126;-57
2024/02/10 03:17:49;;;;;;;0.30;0.10;;;;;;;;;;2056502;28;20106;-58
2024/02/10 03:18:50;;;;;;;1.08;0.10;;;;;;;;;;2054776;28;20027;-59
2024/02/10 03:19:53;;;;;;;0.10;0.08;;;;;;;;;;2056614;28;20101;-57
2024/02/10 03:20:55;;;;;;;0.45;0.20;;;;;;;;;;2056590;28;20117;-57
2024/02/10 03:22:03;;;;;;;0.60;0.17;;;;;;;;;;2056570;28;20482;-58
2024/02/10 03:23:04;;;;;;;1.02;0.13;;;;;;;;;;2056615;28;20041;-57
2024/02/10 03:24:06;;;;;;;0.40;0.10;;;;;;;;;;2056013;28;20533;-60
2024/02/10 03:25:07;;;;;;;0.20;0.10;;;;;;;;;;2056069;28;20035;-59
2024/02/10 03:26:08;;;;;;;0.73;0.20;;;;;;;;;;2055775;28;20532;-56
2024/02/10 03:27:10;;;;;;;0.75;0.20;;;;;;;;;;2056338;28;20385;-56
2024/02/10 03:28:15;;;;;;;0.13;0.10;;;;;;;;;;2056687;28;20027;-57
2024/02/10 03:29:19;;;;;;;1.48;0.30;;;;;;;;;;2056620;28;20034;-55
2024/02/10 03:30:23;;;;;;;0.15;0.10;;;;;;;;;;2054173;28;20023;-56
2024/02/10 03:31:24;;;;;;;1.63;0.30;;;;;;;;;;2053793;28;20437;-55
2024/02/10 03:32:26;;;;;;;0.25;0.13;;;;;;;;;;2056707;28;20465;-57
2024/02/10 03:33:27;;;;;;;0.22;0.10;;;;;;;;;;2056358;28;20035;-56
2024/02/10 03:34:28;;;;;;;0.10;0.05;;;;;;;;;;2056526;28;20035;-50
2024/02/10 03:35:32;;;;;;;0.77;0.10;;;;;;;;;;2056437;28;20027;-58
2024/02/10 03:36:33;;;;;;;0.55;0.32;;;;;;;;;;2059723;28;20018;-57
2024/02/10 03:37:35;;;;;;;1.20;0.20;;;;;;;;;;2063731;28;20032;-56
2024/02/10 03:38:36;;;;;;;1.10;0.10;;;;;;;;;;2058374;28;20023;-55
2024/02/10 03:39:38;;;;;;;0.55;0.10;;;;;;;;;;2057858;28;20506;-53
2024/02/10 03:40:39;;;;;;;1.13;0.10;;;;;;;;;;2062891;28;20065;-50
2024/02/10 03:41:40;;;;;;;0.17;0.00;;;;;;;;;;2066089;28;20105;-54
2024/02/10 03:42:42;;;;;;;0.65;0.10;;;;;;;;;;2057869;28;20455;-55
2024/02/10 03:43:43;;;;;;;0.98;0.20;;;;;;;;;;2058020;28;20023;-55
2024/02/10 03:44:46;;;;;;;0.60;0.20;;;;;;;;;;2058071;28;20033;-52
2024/02/10 03:45:47;;;;;;;2.40;0.15;;;;;;;;;;2057977;28;20102;-52
2024/02/10 03:46:49;;;;;;;0.73;0.20;;;;;;;;;;2057820;28;20398;-53
2024/02/10 03:47:54;;;;;;;0.60;0.10;;;;;;;;;;2057076;28;20018;-52
2024/02/10 03:48:59;;;;;;;0.10;0.10;;;;;;;;;;2057354;28;20045;-52
2024/02/10 03:50:00;;;;;;;1.30;0.57;;;;;;;;;;2057961;28;20023;-51
2024/02/10 03:51:01;;;;;;;0.77;0.17;;;;;;;;;;2057913;28;20023;-52
2024/02/10 03:52:02;;;;;;;0.40;0.15;;;;;;;;;;2055989;28;20027;-51
2024/02/10 03:53:03;;;;;;;0.85;0.17;;;;;;;;;;2049773;29;20102;-53
2024/02/10 03:54:08;;;;;;;0.80;0.17;;;;;;;;;;2049969;29;20344;-51
2024/02/10 03:55:10;;;;;;;0.88;0.20;;;;;;;;;;2049779;28;20709;-51
2024/02/10 03:56:11;;;;;;;0.68;0.10;;;;;;;;;;2052266;28;20386;-51
2024/02/10 03:57:12;;;;;;;0.70;0.20;;;;;;;;;;2065923;28;20054;-53
2024/02/10 03:58:16;;;;;;;1.27;0.20;;;;;;;;;;2065652;28;20117;-55
2024/02/10 03:59:18;;;;;;;1.13;0.20;;;;;;;;;;2057120;28;20141;-49
2024/02/10 04:00:26;;;;;;;0.88;0.17;;;;;;;;;;2057350;28;20019;-50
2024/02/10 04:01:27;;;;;;;0.43;0.10;;;;;;;;;;2059099;28;20098;-50
2024/02/10 04:02:29;;;;;;;0.45;0.20;;;;;;;;;;2057755;28;20011;-50
2024/02/10 04:03:30;;;;;;;0.57;0.20;;;;;;;;;;2053887;28;20019;-49
2024/02/10 04:04:31;;;;;;;0.13;0.10;;;;;;;;;;2057632;28;20452;-51
2024/02/10 04:05:38;;;;;;;0.30;0.20;;;;;;;;;;2057370;28;20155;-50
2024/02/10 04:06:40;;;;;;;0.60;0.20;;;;;;;;;;2058023;28;20046;-50
2024/02/10 04:07:41;;;;;;;0.35;0.10;;;;;;;;;;2056748;28;20037;-51
2024/02/10 04:08:45;;;;;;;0.30;0.10;;;;;;;;;;2056397;28;20027;-51
2024/02/10 04:09:46;;;;;;;0.40;0.10;;;;;;;;;;2056383;28;20019;-50
2024/02/10 04:10:48;;;;;;;0.45;0.10;;;;;;;;;;2049145;28;20021;-51
2024/02/10 04:11:50;;;;;;;0.88;0.10;;;;;;;;;;2057027;28;20347;-51
2024/02/10 04:12:51;;;;;;;0.63;0.20;;;;;;;;;;2057797;28;20031;-50
2024/02/10 04:13:54;;;;;;;0.30;0.10;;;;;;;;;;2057682;28;20537;-51
2024/02/10 04:14:58;;;;;;;2.28;0.20;;;;;;;;;;2057631;28;20106;-51
2024/02/10 04:16:00;;;;;;;0.13;0.00;;;;;;;;;;2057657;28;20023;-49
2024/02/10 04:17:01;;;;;;;0.60;0.25;;;;;;;;;;2057954;28;20019;-52
2024/02/10 04:18:05;;;;;;;0.80;0.22;;;;;;;;;;2057713;28;20465;-54
2024/02/10 04:19:06;;;;;;;0.73;0.10;;;;;;;;;;2057027;28;20532;-55
2024/02/10 04:20:09;;;;;;;0.38;0.10;;;;;;;;;;2057937;28;20093;-55
2024/02/10 04:21:10;;;;;;;0.55;0.10;;;;;;;;;;2057956;28;20515;-56
2024/02/10 04:22:15;;;;;;;0.32;0.08;;;;;;;;;;2057564;28;20370;-57
2024/02/10 04:23:16;;;;;;;1.05;0.20;;;;;;;;;;2057785;28;20097;-54
2024/02/10 04:24:19;;;;;;;0.82;0.20;;;;;;;;;;2057833;28;20037;-51
2024/02/10 04:25:20;;;;;;;0.22;0.10;;;;;;;;;;2057002;28;20021;-53
2024/02/10 04:26:21;;;;;;;0.10;0.10;;;;;;;;;;2057201;28;20382;-53
2024/02/10 04:27:23;;;;;;;0.57;0.20;;;;;;;;;;2064810;28;20069;-53
2024/02/10 04:28:24;;;;;;;0.10;0.00;;;;;;;;;;2065127;28;20027;-57
2024/02/10 04:29:26;;;;;;;0.35;0.17;;;;;;;;;;2065777;28;20393;-56
2024/02/10 04:30:27;;;;;;;0.38;0.20;;;;;;;;;;2065157;28;20098;-57
2024/02/10 04:31:29;;;;;;;0.80;0.10;;;;;;;;;;2057086;28;20027;-57
2024/02/10 04:32:31;;;;;;;1.38;0.20;;;;;;;;;;2057430;28;20019;-57
2024/02/10 04:33:32;;;;;;;0.10;0.00;;;;;;;;;;2062691;28;20046;-52
2024/02/10 04:34:33;;;;;;;1.00;0.20;;;;;;;;;;2057337;28;20086;-54
2024/02/10 04:35:35;;;;;;;0.55;0.10;;;;;;;;;;2056942;28;20019;-57
2024/02/10 04:36:36;;;;;;;0.17;0.10;;;;;;;;;;2058732;28;20159;-57
2024/02/10 04:37:38;;;;;;;0.98;0.10;;;;;;;;;;2064237;28;20018;-54
2024/02/10 04:38:39;;;;;;;0.30;0.10;;;;;;;;;;2057072;28;20015;-57
2024/02/10 04:39:41;;;;;;;0.47;0.10;;;;;;;;;;2064750;28;20041;-57
2024/02/10 04:40:42;;;;;;;0.45;0.10;;;;;;;;;;2057594;28;20501;-57
2024/02/10 04:41:43;;;;;;;0.10;0.00;;;;;;;;;;2057503;28;20066;-53
2024/02/10 04:42:45;;;;;;;0.20;0.10;;;;;;;;;;2057448;28;20038;-53
2024/02/10 04:43:46;;;;;;;0.95;0.10;;;;;;;;;;2056653;28;20027;-53
2024/02/10 04:44:51;;;;;;;0.32;0.10;;;;;;;;;;2056644;28;20025;-53
2024/02/10 04:45:53;;;;;;;1.55;0.10;;;;;;;;;;2065367;28;20035;-54
2024/02/10 04:46:55;;;;;;;0.38;0.10;;;;;;;;;;2063838;28;20019;-54
2024/02/10 04:47:56;;;;;;;0.82;0.10;;;;;;;;;;2064682;28;20025;-54
2024/02/10 04:48:58;;;;;;;0.25;0.10;;;;;;;;;;2064766;28;20041;-53
2024/02/10 04:50:01;;;;;;;0.32;0.10;;;;;;;;;;2056960;28;20094;-54
2024/02/10 04:51:02;;;;;;;0.10;0.00;;;;;;;;;;2057161;28;20106;-53
2024/02/10 04:52:03;;;;;;;0.70;0.10;;;;;;;;;;2064940;28;20485;-53
2024/02/10 04:53:08;;;;;;;0.08;0.03;;;;;;;;;;2065475;28;20359;-53
2024/02/10 04:54:09;;;;;;;0.17;0.10;;;;;;;;;;2055109;28;20418;-52
2024/02/10 04:55:13;;;;;;;0.20;0.10;;;;;;;;;;2057873;28;20023;-51
2024/02/10 04:56:18;;;;;;;0.20;0.10;;;;;;;;;;2057455;28;20025;-51
2024/02/10 04:57:28;;;;;;;0.98;0.20;;;;;;;;;;2057230;28;20077;-52
2024/02/10 04:58:29;;;;;;;0.30;0.10;;;;;;;;;;2058281;28;20038;-52
2024/02/10 04:59:31;;;;;;;0.77;0.10;;;;;;;;;;2065526;28;20301;-52
2024/02/10 05:00:32;;;;;;;0.52;0.13;;;;;;;;;;2065624;28;20042;-52
2024/02/10 05:01:33;;;;;;;0.08;0.05;;;;;;;;;;2065351;28;20033;-52
2024/02/10 05:02:34;;;;;;;1.40;0.10;;;;;;;;;;2065455;28;20424;-51
2024/02/10 05:03:40;;;;;;;0.20;0.00;;;;;;;;;;2065501;28;20025;-51
2024/02/10 05:04:43;;;;;;;0.50;0.10;;;;;;;;;;2064687;28;20030;-52
2024/02/10 05:05:44;;;;;;;1.38;0.10;;;;;;;;;;2064672;28;20018;-52
2024/02/10 05:06:46;;;;;;;0.85;0.10;;;;;;;;;;2057598;28;20041;-51
2024/02/10 05:07:55;;;;;;;0.55;0.10;;;;;;;;;;2056132;28;20515;-50
2024/02/10 05:08:58;;;;;;;0.50;0.30;;;;;;;;;;2056303;28;20030;-50
2024/02/10 05:10:00;;;;;;;0.45;0.10;;;;;;;;;;2065230;28;20122;-51
2024/02/10 05:11:02;;;;;;;1.08;0.20;;;;;;;;;;2058477;28;20403;-50
2024/02/10 05:12:03;;;;;;;0.98;0.15;;;;;;;;;;2056296;28;20026;-52
2024/02/10 05:13:05;;;;;;;1.17;0.20;;;;;;;;;;2056584;28;20118;-51
2024/02/10 05:14:08;;;;;;;1.23;0.20;;;;;;;;;;2056779;28;20062;-51
2024/02/10 05:15:09;;;;;;;0.30;0.10;;;;;;;;;;2052517;28;20019;-51
2024/02/10 05:16:10;;;;;;;0.25;0.00;;;;;;;;;;2057330;28;20050;-51
2024/02/10 05:17:13;;;;;;;0.10;0.00;;;;;;;;;;2057367;28;20023;-52
2024/02/10 05:18:14;;;;;;;0.20;0.10;;;;;;;;;;2057303;28;20027;-51
2024/02/10 05:19:17;;;;;;;0.45;0.10;;;;;;;;;;2057193;28;20106;-51
2024/02/10 05:20:19;;;;;;;0.30;0.00;;;;;;;;;;2057455;28;20753;-52
2024/02/10 05:21:22;;;;;;;0.60;0.15;;;;;;;;;;2057078;28;20029;-52
2024/02/10 05:22:24;;;;;;;0.82;0.10;;;;;;;;;;2057201;28;20027;-52
2024/02/10 05:23:25;;;;;;;0.73;0.10;;;;;;;;;;2064002;28;20058;-51
2024/02/10 05:24:29;;;;;;;0.73;0.10;;;;;;;;;;2065411;28;20023;-51
2024/02/10 05:25:34;;;;;;;0.20;0.10;;;;;;;;;;2064747;28;20065;-52
2024/02/10 05:26:38;;;;;;;0.28;0.10;;;;;;;;;;2051685;28;20014;-53
2024/02/10 05:27:39;;;;;;;0.93;0.10;;;;;;;;;;2056590;28;20031;-50
2024/02/10 05:28:41;;;;;;;0.30;0.10;;;;;;;;;;2057038;28;20035;-50
2024/02/10 05:29:42;;;;;;;1.00;0.20;;;;;;;;;;2056443;28;20023;-55
2024/02/10 05:30:44;;;;;;;0.75;0.10;;;;;;;;;;2056345;28;20015;-58
2024/02/10 05:31:47;;;;;;;0.90;0.10;;;;;;;;;;2051577;28;20446;-58
2024/02/10 05:32:49;;;;;;;0.47;0.10;;;;;;;;;;2048680;29;20051;-57
2024/02/10 05:33:52;;;;;;;0.20;0.00;;;;;;;;;;2055634;28;20394;-55
2024/02/10 05:34:54;;;;;;;0.50;0.10;;;;;;;;;;2056428;28;20113;-58
2024/02/10 05:35:55;;;;;;;0.43;0.10;;;;;;;;;;2049770;28;20018;-50
2024/02/10 05:36:59;;;;;;;0.50;0.20;;;;;;;;;;2056344;28;20114;-49
2024/02/10 05:38:04;;;;;;;0.30;0.10;;;;;;;;;;2055979;28;20102;-50
2024/02/10 05:39:09;;;;;;;0.77;0.20;;;;;;;;;;2057323;28;20039;-49
2024/02/10 05:40:11;;;;;;;0.60;0.25;;;;;;;;;;2057057;28;20521;-50
2024/02/10 05:41:12;;;;;;;1.00;0.30;;;;;;;;;;2057167;28;20026;-49
2024/02/10 05:42:13;;;;;;;0.20;0.10;;;;;;;;;;2056998;28;20019;-49
2024/02/10 05:43:14;;;;;;;0.30;0.20;;;;;;;;;;2057153;28;20014;-49
2024/02/10 05:44:16;;;;;;;0.30;0.20;;;;;;;;;;2056979;28;20033;-49
2024/02/10 05:45:18;;;;;;;1.23;0.28;;;;;;;;;;2056402;28;20031;-53
2024/02/10 05:46:19;;;;;;;0.22;0.13;;;;;;;;;;2056315;28;20023;-54
2024/02/10 05:47:21;;;;;;;0.43;0.17;;;;;;;;;;2048998;29;20406;-53
2024/02/10 05:48:27;;;;;;;1.77;0.30;;;;;;;;;;2051832;28;20034;-52
2024/02/10 05:49:29;;;;;;;1.20;0.13;;;;;;;;;;2057074;28;20034;-52
2024/02/10 05:50:32;;;;;;;0.22;0.00;;;;;;;;;;2057147;28;20023;-52
2024/02/10 05:51:38;;;;;;;0.43;0.10;;;;;;;;;;2057346;28;20034;-53
2024/02/10 05:52:42;;;;;;;0.10;0.00;;;;;;;;;;2064549;28;20544;-53
2024/02/10 05:53:46;;;;;;;1.08;0.28;;;;;;;;;;2064130;28;20010;-53
2024/02/10 05:54:47;;;;;;;0.30;0.10;;;;;;;;;;2056316;28;20054;-53
2024/02/10 05:55:48;;;;;;;0.90;0.13;;;;;;;;;;2056664;28;20099;-52
2024/02/10 05:56:51;;;;;;;0.40;0.00;;;;;;;;;;2057507;28;20479;-51
2024/02/10 05:57:56;;;;;;;1.55;0.10;;;;;;;;;;2064539;28;20540;-51
2024/02/10 05:58:57;;;;;;;0.17;0.10;;;;;;;;;;2057680;28;20037;-50
2024/02/10 05:59:58;;;;;;;0.77;0.10;;;;;;;;;;2056379;28;20942;-52
2024/02/10 06:00:59;;;;;;;0.00;0.00;;;;;;;;;;2057232;28;20038;-52
2024/02/10 06:02:01;;;;;;;2.60;0.38;;;;;;;;;;2056689;28;20038;-52
2024/02/10 06:03:04;;;;;;;0.10;0.10;;;;;;;;;;2056460;28;20489;-52
2024/02/10 06:04:09;;;;;;;1.83;0.15;;;;;;;;;;2056770;28;20059;-51
2024/02/10 06:05:13;;;;;;;0.10;0.00;;;;;;;;;;2060221;28;20038;-51
2024/02/10 06:06:15;;;;;;;1.95;0.17;;;;;;;;;;2058827;28;20022;-51
2024/02/10 06:07:16;;;;;;;1.02;0.10;;;;;;;;;;2064131;28;20093;-51
2024/02/10 06:08:18;;;;;;;0.38;0.10;;;;;;;;;;2064767;28;20040;-52
2024/02/10 06:09:19;;;;;;;1.08;0.17;;;;;;;;;;2064469;28;20525;-52
2024/02/10 06:10:20;;;;;;;0.35;0.00;;;;;;;;;;2065319;28;20505;-53
2024/02/10 06:11:24;;;;;;;1.50;0.30;;;;;;;;;;2065146;28;20126;-51
2024/02/10 06:12:27;;;;;;;0.90;0.35;;;;;;;;;;2064907;28;20064;-51
2024/02/10 06:13:32;;;;;;;0.50;0.03;;;;;;;;;;2064593;28;20030;-51